sensor_id;sensor_type;location;lat;lon;timestamp;pressure;altitude;pressure_sealevel;temperature
65290;BMP180;51893;59.754;10.110;2023-07-13T00:01:16;100196.80;;;16.40
65290;BMP180;51893;59.754;10.110;2023-07-13T00:03:45;100196.40;;;16.40
65290;BMP180;51893;59.754;10.110;2023-07-13T00:06:14;100192.40;;;16.42
65290;BMP180;51893;59.754;10.110;2023-07-13T00:08:44;100193.00;;;16.40
65290;BMP180;51893;59.754;10.110;2023-07-13T00:11:12;100192.00;;;16.40
65290;BMP180;51893;59.754;10.110;2023-07-13T00:13:42;100193.20;;;16.40
65290;BMP180;51893;59.754;10.110;2023-07-13T00:16:13;100194.80;;;16.40
65290;BMP180;51893;59.754;10.110;2023-07-13T00:18:42;100192.60;;;16.40
65290;BMP180;51893;59.754;10.110;2023-07-13T00:21:10;100189.60;;;16.40
65290;BMP180;51893;59.754;10.110;2023-07-13T00:23:41;100190.40;;;16.40
65290;BMP180;51893;59.754;10.110;2023-07-13T00:26:12;100186.80;;;16.44
65290;BMP180;51893;59.754;10.110;2023-07-13T00:28:42;100187.80;;;16.44
65290;BMP180;51893;59.754;10.110;2023-07-13T00:31:12;100191.00;;;16.40
65290;BMP180;51893;59.754;10.110;2023-07-13T00:33:43;100185.40;;;16.40
65290;BMP180;51893;59.754;10.110;2023-07-13T00:36:11;100179.00;;;16.40
65290;BMP180;51893;59.754;10.110;2023-07-13T00:38:40;100176.40;;;16.40
65290;BMP180;51893;59.754;10.110;2023-07-13T00:41:10;100178.40;;;16.40
65290;BMP180;51893;59.754;10.110;2023-07-13T00:43:40;100179.60;;;16.40
65290;BMP180;51893;59.754;10.110;2023-07-13T00:48:43;100177.60;;;16.40
65290;BMP180;51893;59.754;10.110;2023-07-13T00:51:18;100179.00;;;16.32
65290;BMP180;51893;59.754;10.110;2023-07-13T00:53:47;100178.40;;;16.30
65290;BMP180;51893;59.754;10.110;2023-07-13T00:56:15;100179.40;;;16.20
65290;BMP180;51893;59.754;10.110;2023-07-13T00:58:45;100181.40;;;16.20
65290;BMP180;51893;59.754;10.110;2023-07-13T01:01:13;100180.00;;;16.20
65290;BMP180;51893;59.754;10.110;2023-07-13T01:03:43;100179.20;;;16.14
65290;BMP180;51893;59.754;10.110;2023-07-13T01:06:11;100178.40;;;16.10
65290;BMP180;51893;59.754;10.110;2023-07-13T01:08:40;100175.20;;;16.08
65290;BMP180;51893;59.754;10.110;2023-07-13T01:11:07;100174.20;;;16.10
65290;BMP180;51893;59.754;10.110;2023-07-13T01:13:36;100175.00;;;16.10
65290;BMP180;51893;59.754;10.110;2023-07-13T01:16:17;100173.60;;;16.10
65290;BMP180;51893;59.754;10.110;2023-07-13T01:18:47;100176.60;;;16.10
65290;BMP180;51893;59.754;10.110;2023-07-13T01:21:15;100174.20;;;16.10
65290;BMP180;51893;59.754;10.110;2023-07-13T01:23:43;100175.20;;;16.10
65290;BMP180;51893;59.754;10.110;2023-07-13T01:26:12;100169.20;;;16.10
65290;BMP180;51893;59.754;10.110;2023-07-13T01:28:40;100166.60;;;16.10
65290;BMP180;51893;59.754;10.110;2023-07-13T01:31:09;100164.40;;;16.10
65290;BMP180;51893;59.754;10.110;2023-07-13T01:33:41;100168.00;;;16.10
65290;BMP180;51893;59.754;10.110;2023-07-13T01:36:11;100173.20;;;16.10
65290;BMP180;51893;59.754;10.110;2023-07-13T01:38:39;100167.40;;;16.10
65290;BMP180;51893;59.754;10.110;2023-07-13T01:41:11;100172.00;;;16.10
65290;BMP180;51893;59.754;10.110;2023-07-13T01:43:39;100170.80;;;16.10
65290;BMP180;51893;59.754;10.110;2023-07-13T01:46:08;100172.00;;;16.10
65290;BMP180;51893;59.754;10.110;2023-07-13T01:48:50;100174.60;;;16.10
65290;BMP180;51893;59.754;10.110;2023-07-13T01:51:20;100171.60;;;16.00
65290;BMP180;51893;59.754;10.110;2023-07-13T01:53:48;100173.00;;;15.90
65290;BMP180;51893;59.754;10.110;2023-07-13T01:56:18;100177.80;;;15.90
65290;BMP180;51893;59.754;10.110;2023-07-13T01:58:47;100184.00;;;15.80
65290;BMP180;51893;59.754;10.110;2023-07-13T02:01:15;100179.00;;;15.80
65290;BMP180;51893;59.754;10.110;2023-07-13T02:03:43;100174.60;;;15.80
65290;BMP180;51893;59.754;10.110;2023-07-13T02:06:12;100182.60;;;15.80
65290;BMP180;51893;59.754;10.110;2023-07-13T02:08:41;100176.20;;;15.80
65290;BMP180;51893;59.754;10.110;2023-07-13T02:11:11;100177.80;;;15.80
65290;BMP180;51893;59.754;10.110;2023-07-13T02:13:39;100172.80;;;15.80
65290;BMP180;51893;59.754;10.110;2023-07-13T02:16:07;100173.20;;;15.70
65290;BMP180;51893;59.754;10.110;2023-07-13T02:18:35;100176.20;;;15.70
65290;BMP180;51893;59.754;10.110;2023-07-13T02:21:06;100179.80;;;15.70
65290;BMP180;51893;59.754;10.110;2023-07-13T02:23:35;100179.00;;;15.60
65290;BMP180;51893;59.754;10.110;2023-07-13T02:26:03;100175.80;;;15.60
65290;BMP180;51893;59.754;10.110;2023-07-13T02:28:32;100177.00;;;15.60
65290;BMP180;51893;59.754;10.110;2023-07-13T02:31:10;100177.20;;;15.60
65290;BMP180;51893;59.754;10.110;2023-07-13T02:33:38;100176.80;;;15.56
65290;BMP180;51893;59.754;10.110;2023-07-13T02:36:07;100172.80;;;15.50
65290;BMP180;51893;59.754;10.110;2023-07-13T02:38:37;100168.60;;;15.44
65290;BMP180;51893;59.754;10.110;2023-07-13T02:41:07;100171.80;;;15.40
65290;BMP180;51893;59.754;10.110;2023-07-13T02:43:37;100172.00;;;15.40
65290;BMP180;51893;59.754;10.110;2023-07-13T02:46:05;100169.80;;;15.40
65290;BMP180;51893;59.754;10.110;2023-07-13T02:48:39;100168.40;;;15.40
65290;BMP180;51893;59.754;10.110;2023-07-13T02:51:07;100174.20;;;15.30
65290;BMP180;51893;59.754;10.110;2023-07-13T02:53:37;100178.20;;;15.30
65290;BMP180;51893;59.754;10.110;2023-07-13T02:56:06;100174.00;;;15.30
65290;BMP180;51893;59.754;10.110;2023-07-13T02:58:36;100175.00;;;15.30
65290;BMP180;51893;59.754;10.110;2023-07-13T03:01:10;100174.40;;;15.30
65290;BMP180;51893;59.754;10.110;2023-07-13T03:03:38;100177.00;;;15.30
65290;BMP180;51893;59.754;10.110;2023-07-13T03:06:07;100171.60;;;15.30
65290;BMP180;51893;59.754;10.110;2023-07-13T03:08:37;100170.40;;;15.30
65290;BMP180;51893;59.754;10.110;2023-07-13T03:11:09;100172.60;;;15.20
65290;BMP180;51893;59.754;10.110;2023-07-13T03:13:41;100169.60;;;15.20
65290;BMP180;51893;59.754;10.110;2023-07-13T03:16:11;100171.80;;;15.30
65290;BMP180;51893;59.754;10.110;2023-07-13T03:18:42;100171.00;;;15.30
65290;BMP180;51893;59.754;10.110;2023-07-13T03:21:10;100173.80;;;15.30
65290;BMP180;51893;59.754;10.110;2023-07-13T03:23:38;100183.40;;;15.30
65290;BMP180;51893;59.754;10.110;2023-07-13T03:26:13;100182.80;;;15.30
65290;BMP180;51893;59.754;10.110;2023-07-13T03:28:42;100185.00;;;15.30
65290;BMP180;51893;59.754;10.110;2023-07-13T03:31:16;100183.60;;;15.30
65290;BMP180;51893;59.754;10.110;2023-07-13T03:33:45;100184.20;;;15.22
65290;BMP180;51893;59.754;10.110;2023-07-13T03:36:21;100183.20;;;15.20
65290;BMP180;51893;59.754;10.110;2023-07-13T03:38:53;100185.00;;;15.20
65290;BMP180;51893;59.754;10.110;2023-07-13T03:41:23;100186.80;;;15.20
65290;BMP180;51893;59.754;10.110;2023-07-13T03:43:52;100185.60;;;15.20
65290;BMP180;51893;59.754;10.110;2023-07-13T03:46:21;100189.00;;;15.14
65290;BMP180;51893;59.754;10.110;2023-07-13T03:48:49;100189.60;;;15.10
65290;BMP180;51893;59.754;10.110;2023-07-13T03:51:18;100187.00;;;15.10
65290;BMP180;51893;59.754;10.110;2023-07-13T03:53:47;100189.00;;;15.10
65290;BMP180;51893;59.754;10.110;2023-07-13T03:56:18;100191.80;;;15.20
65290;BMP180;51893;59.754;10.110;2023-07-13T03:58:49;100192.20;;;15.20
65290;BMP180;51893;59.754;10.110;2023-07-13T04:01:21;100190.40;;;15.10
65290;BMP180;51893;59.754;10.110;2023-07-13T04:03:51;100193.80;;;15.18
65290;BMP180;51893;59.754;10.110;2023-07-13T04:06:27;100192.20;;;15.20
65290;BMP180;51893;59.754;10.110;2023-07-13T04:08:59;100194.00;;;15.22
65290;BMP180;51893;59.754;10.110;2023-07-13T04:11:30;100191.80;;;15.30
65290;BMP180;51893;59.754;10.110;2023-07-13T04:13:59;100196.60;;;15.30
65290;BMP180;51893;59.754;10.110;2023-07-13T04:16:29;100199.80;;;15.30
65290;BMP180;51893;59.754;10.110;2023-07-13T04:18:58;100197.20;;;15.30
65290;BMP180;51893;59.754;10.110;2023-07-13T04:21:30;100194.60;;;15.30
65290;BMP180;51893;59.754;10.110;2023-07-13T04:23:59;100195.60;;;15.34
65290;BMP180;51893;59.754;10.110;2023-07-13T04:26:28;100192.80;;;15.40
65290;BMP180;51893;59.754;10.110;2023-07-13T04:28:57;100193.60;;;15.42
65290;BMP180;51893;59.754;10.110;2023-07-13T04:31:26;100194.40;;;15.50
65290;BMP180;51893;59.754;10.110;2023-07-13T04:33:54;100191.00;;;15.50
65290;BMP180;51893;59.754;10.110;2023-07-13T04:36:22;100192.60;;;15.50
65290;BMP180;51893;59.754;10.110;2023-07-13T04:38:50;100196.60;;;15.52
65290;BMP180;51893;59.754;10.110;2023-07-13T04:41:21;100196.20;;;15.60
65290;BMP180;51893;59.754;10.110;2023-07-13T04:43:49;100198.20;;;15.60
65290;BMP180;51893;59.754;10.110;2023-07-13T04:46:18;100204.60;;;15.60
65290;BMP180;51893;59.754;10.110;2023-07-13T04:48:49;100207.80;;;15.70
65290;BMP180;51893;59.754;10.110;2023-07-13T04:51:21;100202.00;;;15.70
65290;BMP180;51893;59.754;10.110;2023-07-13T04:53:50;100204.80;;;15.70
65290;BMP180;51893;59.754;10.110;2023-07-13T04:56:25;100209.20;;;15.70
65290;BMP180;51893;59.754;10.110;2023-07-13T04:58:53;100206.20;;;15.70
65290;BMP180;51893;59.754;10.110;2023-07-13T05:01:21;100205.60;;;15.70
65290;BMP180;51893;59.754;10.110;2023-07-13T05:03:51;100203.00;;;15.80
65290;BMP180;51893;59.754;10.110;2023-07-13T05:06:20;100207.40;;;15.80
65290;BMP180;51893;59.754;10.110;2023-07-13T05:08:48;100206.40;;;15.84
65290;BMP180;51893;59.754;10.110;2023-07-13T05:11:18;100213.60;;;15.90
65290;BMP180;51893;59.754;10.110;2023-07-13T05:13:46;100211.60;;;15.90
65290;BMP180;51893;59.754;10.110;2023-07-13T05:16:14;100212.60;;;15.96
65290;BMP180;51893;59.754;10.110;2023-07-13T05:18:42;100215.80;;;16.00
65290;BMP180;51893;59.754;10.110;2023-07-13T05:21:11;100217.20;;;16.10
65290;BMP180;51893;59.754;10.110;2023-07-13T05:23:41;100218.00;;;16.10
65290;BMP180;51893;59.754;10.110;2023-07-13T05:26:11;100227.20;;;16.20
65290;BMP180;51893;59.754;10.110;2023-07-13T05:28:41;100222.20;;;16.20
65290;BMP180;51893;59.754;10.110;2023-07-13T05:31:10;100224.60;;;16.20
65290;BMP180;51893;59.754;10.110;2023-07-13T05:33:41;100225.00;;;16.20
65290;BMP180;51893;59.754;10.110;2023-07-13T05:36:09;100224.60;;;16.30
65290;BMP180;51893;59.754;10.110;2023-07-13T05:38:37;100224.80;;;16.30
65290;BMP180;51893;59.754;10.110;2023-07-13T05:41:06;100231.40;;;16.38
65290;BMP180;51893;59.754;10.110;2023-07-13T05:43:35;100233.80;;;16.40
65290;BMP180;51893;59.754;10.110;2023-07-13T05:46:03;100237.00;;;16.44
65290;BMP180;51893;59.754;10.110;2023-07-13T05:48:32;100240.40;;;16.50
65290;BMP180;51893;59.754;10.110;2023-07-13T05:51:01;100243.80;;;16.48
65290;BMP180;51893;59.754;10.110;2023-07-13T05:53:30;100244.40;;;16.42
65290;BMP180;51893;59.754;10.110;2023-07-13T05:55:58;100245.80;;;16.50
65290;BMP180;51893;59.754;10.110;2023-07-13T05:58:30;100250.80;;;16.56
65290;BMP180;51893;59.754;10.110;2023-07-13T06:01:03;100247.40;;;16.60
65290;BMP180;51893;59.754;10.110;2023-07-13T06:03:33;100248.20;;;16.60
65290;BMP180;51893;59.754;10.110;2023-07-13T06:06:01;100256.20;;;16.60
65290;BMP180;51893;59.754;10.110;2023-07-13T06:08:30;100256.40;;;16.70
65290;BMP180;51893;59.754;10.110;2023-07-13T06:11:05;100260.40;;;16.70
65290;BMP180;51893;59.754;10.110;2023-07-13T06:13:34;100263.00;;;16.80
65290;BMP180;51893;59.754;10.110;2023-07-13T06:16:03;100264.80;;;16.80
65290;BMP180;51893;59.754;10.110;2023-07-13T06:18:34;100261.40;;;16.90
65290;BMP180;51893;59.754;10.110;2023-07-13T06:21:13;100267.60;;;16.92
65290;BMP180;51893;59.754;10.110;2023-07-13T06:23:42;100272.00;;;17.00
65290;BMP180;51893;59.754;10.110;2023-07-13T06:26:11;100267.00;;;17.10
65290;BMP180;51893;59.754;10.110;2023-07-13T06:28:40;100271.80;;;17.20
65290;BMP180;51893;59.754;10.110;2023-07-13T06:31:10;100268.20;;;17.30
65290;BMP180;51893;59.754;10.110;2023-07-13T06:33:40;100271.80;;;17.30
65290;BMP180;51893;59.754;10.110;2023-07-13T06:36:09;100274.60;;;17.40
65290;BMP180;51893;59.754;10.110;2023-07-13T06:38:38;100273.60;;;17.50
65290;BMP180;51893;59.754;10.110;2023-07-13T06:41:08;100281.60;;;17.60
65290;BMP180;51893;59.754;10.110;2023-07-13T06:43:37;100283.60;;;17.70
65290;BMP180;51893;59.754;10.110;2023-07-13T06:46:05;100288.80;;;17.70
65290;BMP180;51893;59.754;10.110;2023-07-13T06:48:33;100291.40;;;17.80
65290;BMP180;51893;59.754;10.110;2023-07-13T06:51:02;100291.60;;;17.80
65290;BMP180;51893;59.754;10.110;2023-07-13T06:53:30;100296.20;;;17.90
65290;BMP180;51893;59.754;10.110;2023-07-13T06:55:59;100305.80;;;17.90
65290;BMP180;51893;59.754;10.110;2023-07-13T06:58:27;100309.00;;;17.94
65290;BMP180;51893;59.754;10.110;2023-07-13T07:00:55;100311.40;;;17.92
65290;BMP180;51893;59.754;10.110;2023-07-13T07:03:23;100315.80;;;17.92
65290;BMP180;51893;59.754;10.110;2023-07-13T07:05:51;100318.60;;;17.90
65290;BMP180;51893;59.754;10.110;2023-07-13T07:08:19;100322.40;;;17.90
65290;BMP180;51893;59.754;10.110;2023-07-13T07:10:49;100319.40;;;18.00
65290;BMP180;51893;59.754;10.110;2023-07-13T07:13:22;100324.20;;;18.04
65290;BMP180;51893;59.754;10.110;2023-07-13T07:15:50;100321.80;;;18.10
65290;BMP180;51893;59.754;10.110;2023-07-13T07:18:19;100328.00;;;18.20
65290;BMP180;51893;59.754;10.110;2023-07-13T07:20:49;100327.20;;;18.28
65290;BMP180;51893;59.754;10.110;2023-07-13T07:23:17;100329.00;;;18.30
65290;BMP180;51893;59.754;10.110;2023-07-13T07:25:46;100333.20;;;18.32
65290;BMP180;51893;59.754;10.110;2023-07-13T07:28:16;100335.40;;;18.40
65290;BMP180;51893;59.754;10.110;2023-07-13T07:30:52;100340.40;;;18.40
65290;BMP180;51893;59.754;10.110;2023-07-13T07:33:41;100343.00;;;18.50
65290;BMP180;51893;59.754;10.110;2023-07-13T07:36:09;100346.60;;;18.50
65290;BMP180;51893;59.754;10.110;2023-07-13T07:38:42;100350.20;;;18.60
65290;BMP180;51893;59.754;10.110;2023-07-13T07:41:12;100354.20;;;18.60
65290;BMP180;51893;59.754;10.110;2023-07-13T07:43:43;100356.40;;;18.62
65290;BMP180;51893;59.754;10.110;2023-07-13T07:46:11;100355.00;;;18.70
65290;BMP180;51893;59.754;10.110;2023-07-13T07:48:40;100357.80;;;18.70
65290;BMP180;51893;59.754;10.110;2023-07-13T07:51:08;100361.20;;;18.70
65290;BMP180;51893;59.754;10.110;2023-07-13T07:53:36;100361.20;;;18.80
65290;BMP180;51893;59.754;10.110;2023-07-13T07:56:04;100368.00;;;18.70
65290;BMP180;51893;59.754;10.110;2023-07-13T07:58:52;100368.20;;;18.70
65290;BMP180;51893;59.754;10.110;2023-07-13T08:01:23;100375.60;;;18.70
65290;BMP180;51893;59.754;10.110;2023-07-13T08:03:54;100376.40;;;18.70
65290;BMP180;51893;59.754;10.110;2023-07-13T08:06:26;100378.00;;;18.80
65290;BMP180;51893;59.754;10.110;2023-07-13T08:08:57;100377.20;;;19.00
65290;BMP180;51893;59.754;10.110;2023-07-13T08:11:25;100383.00;;;19.10
65290;BMP180;51893;59.754;10.110;2023-07-13T08:13:56;100380.40;;;19.20
65290;BMP180;51893;59.754;10.110;2023-07-13T08:16:24;100380.80;;;19.30
65290;BMP180;51893;59.754;10.110;2023-07-13T08:18:52;100389.80;;;19.40
65290;BMP180;51893;59.754;10.110;2023-07-13T08:21:20;100390.60;;;19.50
65290;BMP180;51893;59.754;10.110;2023-07-13T08:23:49;100394.40;;;19.60
65290;BMP180;51893;59.754;10.110;2023-07-13T08:26:17;100404.40;;;19.70
65290;BMP180;51893;59.754;10.110;2023-07-13T08:28:45;100408.60;;;19.70
65290;BMP180;51893;59.754;10.110;2023-07-13T08:31:14;100410.20;;;19.60
65290;BMP180;51893;59.754;10.110;2023-07-13T08:33:43;100407.80;;;19.60
65290;BMP180;51893;59.754;10.110;2023-07-13T08:36:12;100411.00;;;19.60
65290;BMP180;51893;59.754;10.110;2023-07-13T08:38:40;100416.60;;;19.70
65290;BMP180;51893;59.754;10.110;2023-07-13T08:41:17;100416.20;;;19.80
65290;BMP180;51893;59.754;10.110;2023-07-13T08:43:51;100413.00;;;19.80
65290;BMP180;51893;59.754;10.110;2023-07-13T08:46:36;100417.40;;;19.90
65290;BMP180;51893;59.754;10.110;2023-07-13T08:49:16;100418.00;;;20.00
65290;BMP180;51893;59.754;10.110;2023-07-13T08:51:51;100417.00;;;20.04
65290;BMP180;51893;59.754;10.110;2023-07-13T08:56:58;100418.20;;;20.20
65290;BMP180;51893;59.754;10.110;2023-07-13T08:59:32;100428.00;;;20.28
65290;BMP180;51893;59.754;10.110;2023-07-13T09:02:26;100429.60;;;20.40
65290;BMP180;51893;59.754;10.110;2023-07-13T09:05:17;100428.60;;;20.50
65290;BMP180;51893;59.754;10.110;2023-07-13T09:08:29;100444.80;;;20.60
65290;BMP180;51893;59.754;10.110;2023-07-13T09:11:15;100448.00;;;20.70
65290;BMP180;51893;59.754;10.110;2023-07-13T09:16:35;100457.80;;;20.82
65290;BMP180;51893;59.754;10.110;2023-07-13T09:19:23;100462.20;;;20.90
65290;BMP180;51893;59.754;10.110;2023-07-13T09:21:55;100463.80;;;20.90
65290;BMP180;51893;59.754;10.110;2023-07-13T09:24:48;100459.80;;;21.00
65290;BMP180;51893;59.754;10.110;2023-07-13T09:27:24;100465.60;;;21.00
65290;BMP180;51893;59.754;10.110;2023-07-13T09:32:50;100465.60;;;20.96
65290;BMP180;51893;59.754;10.110;2023-07-13T09:35:26;100462.40;;;21.00
65290;BMP180;51893;59.754;10.110;2023-07-13T09:38:19;100459.20;;;21.10
65290;BMP180;51893;59.754;10.110;2023-07-13T09:41:01;100468.00;;;21.20
65290;BMP180;51893;59.754;10.110;2023-07-13T09:43:31;100470.20;;;21.30
65290;BMP180;51893;59.754;10.110;2023-07-13T09:45:59;100470.00;;;21.30
65290;BMP180;51893;59.754;10.110;2023-07-13T09:48:35;100478.80;;;21.28
65290;BMP180;51893;59.754;10.110;2023-07-13T09:51:13;100479.80;;;21.30
65290;BMP180;51893;59.754;10.110;2023-07-13T09:53:43;100481.60;;;21.42
65290;BMP180;51893;59.754;10.110;2023-07-13T09:56:26;100490.80;;;21.60
65290;BMP180;51893;59.754;10.110;2023-07-13T09:58:56;100496.20;;;21.60
65290;BMP180;51893;59.754;10.110;2023-07-13T10:01:37;100490.80;;;21.50
65290;BMP180;51893;59.754;10.110;2023-07-13T10:04:12;100490.20;;;21.44
65290;BMP180;51893;59.754;10.110;2023-07-13T10:06:44;100486.80;;;21.60
65290;BMP180;51893;59.754;10.110;2023-07-13T10:09:16;100484.80;;;21.70
65290;BMP180;51893;59.754;10.110;2023-07-13T10:11:45;100486.80;;;21.70
65290;BMP180;51893;59.754;10.110;2023-07-13T10:14:22;100485.40;;;21.80
65290;BMP180;51893;59.754;10.110;2023-07-13T10:17:00;100488.40;;;21.80
65290;BMP180;51893;59.754;10.110;2023-07-13T10:19:35;100483.80;;;21.90
65290;BMP180;51893;59.754;10.110;2023-07-13T10:22:27;100485.60;;;22.08
65290;BMP180;51893;59.754;10.110;2023-07-13T10:24:56;100480.80;;;22.10
65290;BMP180;51893;59.754;10.110;2023-07-13T10:27:35;100476.80;;;22.20
65290;BMP180;51893;59.754;10.110;2023-07-13T10:30:25;100473.60;;;22.40
65290;BMP180;51893;59.754;10.110;2023-07-13T10:33:04;100475.60;;;22.48
65290;BMP180;51893;59.754;10.110;2023-07-13T10:35:34;100473.60;;;22.60
65290;BMP180;51893;59.754;10.110;2023-07-13T10:38:13;100478.80;;;22.72
65290;BMP180;51893;59.754;10.110;2023-07-13T10:41:01;100487.60;;;22.70
65290;BMP180;51893;59.754;10.110;2023-07-13T10:43:46;100488.00;;;22.60
65290;BMP180;51893;59.754;10.110;2023-07-13T10:46:19;100476.80;;;22.50
65290;BMP180;51893;59.754;10.110;2023-07-13T10:48:55;100479.00;;;22.62
65290;BMP180;51893;59.754;10.110;2023-07-13T10:51:27;100486.80;;;22.70
65290;BMP180;51893;59.754;10.110;2023-07-13T10:54:19;100486.60;;;22.70
65290;BMP180;51893;59.754;10.110;2023-07-13T10:59:40;100485.80;;;22.60
65290;BMP180;51893;59.754;10.110;2023-07-13T11:04:54;100475.00;;;23.10
65290;BMP180;51893;59.754;10.110;2023-07-13T11:07:26;100483.80;;;23.28
65290;BMP180;51893;59.754;10.110;2023-07-13T11:10:04;100486.40;;;23.30
65290;BMP180;51893;59.754;10.110;2023-07-13T11:12:52;100486.80;;;23.20
65290;BMP180;51893;59.754;10.110;2023-07-13T11:15:47;100488.00;;;23.30
65290;BMP180;51893;59.754;10.110;2023-07-13T11:18:24;100482.60;;;23.30
65290;BMP180;51893;59.754;10.110;2023-07-13T11:21:23;100474.00;;;23.40
65290;BMP180;51893;59.754;10.110;2023-07-13T11:24:16;100472.40;;;23.40
65290;BMP180;51893;59.754;10.110;2023-07-13T11:32:22;100484.00;;;22.90
65290;BMP180;51893;59.754;10.110;2023-07-13T11:34:51;100484.00;;;22.88
65290;BMP180;51893;59.754;10.110;2023-07-13T11:37:20;100482.60;;;22.70
65290;BMP180;51893;59.754;10.110;2023-07-13T11:39:51;100479.00;;;22.60
65290;BMP180;51893;59.754;10.110;2023-07-13T11:42:21;100478.80;;;22.60
65290;BMP180;51893;59.754;10.110;2023-07-13T11:44:52;100474.40;;;22.70
65290;BMP180;51893;59.754;10.110;2023-07-13T11:47:40;100476.60;;;22.70
65290;BMP180;51893;59.754;10.110;2023-07-13T11:50:23;100473.60;;;22.70
65290;BMP180;51893;59.754;10.110;2023-07-13T11:52:54;100460.80;;;22.50
65290;BMP180;51893;59.754;10.110;2023-07-13T11:55:24;100455.60;;;22.40
65290;BMP180;51893;59.754;10.110;2023-07-13T11:57:59;100466.00;;;22.16
65290;BMP180;51893;59.754;10.110;2023-07-13T12:00:31;100468.20;;;21.92
65290;BMP180;51893;59.754;10.110;2023-07-13T12:03:03;100459.80;;;21.70
65290;BMP180;51893;59.754;10.110;2023-07-13T12:05:33;100475.40;;;21.60
65290;BMP180;51893;59.754;10.110;2023-07-13T12:08:10;100484.60;;;21.60
65290;BMP180;51893;59.754;10.110;2023-07-13T12:10:59;100475.60;;;21.60
65290;BMP180;51893;59.754;10.110;2023-07-13T12:13:28;100474.60;;;21.60
65290;BMP180;51893;59.754;10.110;2023-07-13T12:15:57;100479.60;;;21.60
65290;BMP180;51893;59.754;10.110;2023-07-13T12:18:30;100479.80;;;21.68
65290;BMP180;51893;59.754;10.110;2023-07-13T12:20:59;100478.80;;;21.76
65290;BMP180;51893;59.754;10.110;2023-07-13T12:23:34;100477.40;;;21.90
65290;BMP180;51893;59.754;10.110;2023-07-13T12:26:05;100473.00;;;21.90
65290;BMP180;51893;59.754;10.110;2023-07-13T12:28:38;100472.00;;;22.00
65290;BMP180;51893;59.754;10.110;2023-07-13T12:34:01;100471.40;;;21.94
65290;BMP180;51893;59.754;10.110;2023-07-13T12:36:34;100468.80;;;22.00
65290;BMP180;51893;59.754;10.110;2023-07-13T12:41:49;100465.00;;;22.30
65290;BMP180;51893;59.754;10.110;2023-07-13T12:44:28;100464.00;;;22.30
65290;BMP180;51893;59.754;10.110;2023-07-13T12:47:05;100462.20;;;22.40
65290;BMP180;51893;59.754;10.110;2023-07-13T12:49:49;100458.60;;;22.60
65290;BMP180;51893;59.754;10.110;2023-07-13T12:52:30;100458.00;;;22.80
65290;BMP180;51893;59.754;10.110;2023-07-13T12:55:07;100454.80;;;23.00
65290;BMP180;51893;59.754;10.110;2023-07-13T12:57:56;100453.80;;;23.30
65290;BMP180;51893;59.754;10.110;2023-07-13T13:00:31;100455.60;;;23.50
65290;BMP180;51893;59.754;10.110;2023-07-13T13:03:21;100452.40;;;23.52
65290;BMP180;51893;59.754;10.110;2023-07-13T13:08:53;100456.00;;;23.90
65290;BMP180;51893;59.754;10.110;2023-07-13T13:11:24;100458.80;;;24.18
65290;BMP180;51893;59.754;10.110;2023-07-13T13:13:53;100449.40;;;24.30
65290;BMP180;51893;59.754;10.110;2023-07-13T13:16:32;100454.20;;;24.40
65290;BMP180;51893;59.754;10.110;2023-07-13T13:19:23;100452.40;;;24.70
65290;BMP180;51893;59.754;10.110;2023-07-13T13:21:55;100455.60;;;25.14
65290;BMP180;51893;59.754;10.110;2023-07-13T13:24:28;100466.60;;;25.30
65290;BMP180;51893;59.754;10.110;2023-07-13T13:26:57;100472.40;;;25.20
65290;BMP180;51893;59.754;10.110;2023-07-13T13:29:26;100466.40;;;25.00
65290;BMP180;51893;59.754;10.110;2023-07-13T13:31:55;100471.00;;;24.90
65290;BMP180;51893;59.754;10.110;2023-07-13T13:34:25;100475.20;;;24.90
65290;BMP180;51893;59.754;10.110;2023-07-13T13:36:55;100477.00;;;24.80
65290;BMP180;51893;59.754;10.110;2023-07-13T13:39:36;100474.60;;;24.70
65290;BMP180;51893;59.754;10.110;2023-07-13T13:42:05;100477.40;;;24.70
65290;BMP180;51893;59.754;10.110;2023-07-13T13:44:33;100476.60;;;24.70
65290;BMP180;51893;59.754;10.110;2023-07-13T13:47:02;100487.40;;;24.60
65290;BMP180;51893;59.754;10.110;2023-07-13T13:49:31;100489.40;;;24.60
65290;BMP180;51893;59.754;10.110;2023-07-13T13:51:58;100490.20;;;24.40
65290;BMP180;51893;59.754;10.110;2023-07-13T13:54:27;100493.20;;;24.10
65290;BMP180;51893;59.754;10.110;2023-07-13T13:56:55;100498.00;;;24.00
65290;BMP180;51893;59.754;10.110;2023-07-13T13:59:23;100499.20;;;23.72
65290;BMP180;51893;59.754;10.110;2023-07-13T14:01:51;100497.00;;;23.70
65290;BMP180;51893;59.754;10.110;2023-07-13T14:04:22;100496.40;;;23.58
65290;BMP180;51893;59.754;10.110;2023-07-13T14:06:51;100498.80;;;23.60
65290;BMP180;51893;59.754;10.110;2023-07-13T14:09:19;100509.00;;;23.70
65290;BMP180;51893;59.754;10.110;2023-07-13T14:11:50;100510.20;;;23.70
65290;BMP180;51893;59.754;10.110;2023-07-13T14:14:22;100508.60;;;23.70
65290;BMP180;51893;59.754;10.110;2023-07-13T14:16:52;100513.40;;;23.60
65290;BMP180;51893;59.754;10.110;2023-07-13T14:19:23;100509.80;;;23.70
65290;BMP180;51893;59.754;10.110;2023-07-13T14:21:51;100519.80;;;23.68
65290;BMP180;51893;59.754;10.110;2023-07-13T14:24:22;100533.80;;;23.32
65290;BMP180;51893;59.754;10.110;2023-07-13T14:26:50;100529.20;;;22.98
65290;BMP180;51893;59.754;10.110;2023-07-13T14:29:19;100523.20;;;22.70
65290;BMP180;51893;59.754;10.110;2023-07-13T14:31:51;100518.60;;;22.50
65290;BMP180;51893;59.754;10.110;2023-07-13T14:34:21;100516.40;;;22.30
65290;BMP180;51893;59.754;10.110;2023-07-13T14:36:50;100510.40;;;22.10
65290;BMP180;51893;59.754;10.110;2023-07-13T14:39:24;100508.80;;;22.10
65290;BMP180;51893;59.754;10.110;2023-07-13T14:41:55;100501.80;;;22.04